Time;durP1;ratioP1;P1;durP2;ratioP2;P2;SDS_P1;SDS_P2;PMS_P1;PMS_P2;Temp;Humidity;BMP_temperature;BMP_pressure;BME280_temperature;BME280_humidity;BME280_pressure;Samples;Min_cycle;Max_cycle;Signal;HPM_P1;HPM_P2
2023/07/24 00:00:24;;;;;;;0.00;0.00;;;;;;;;;;1750480;28;20209;-80
2023/07/24 00:01:15;;;;;;;0.00;0.00;;;;;;;;;;1746778;28;20293;-81
2023/07/24 00:02:07;;;;;;;0.00;0.00;;;;;;;;;;1746979;28;20695;-82
2023/07/24 00:02:58;;;;;;;0.00;0.00;;;;;;;;;;1747362;28;20297;-82
2023/07/24 00:03:49;;;;;;;0.00;0.00;;;;;;;;;;1747165;28;20267;-81
2023/07/24 00:04:41;;;;;;;0.00;0.00;;;;;;;;;;1746938;28;20277;-81
2023/07/24 00:05:32;;;;;;;0.00;0.00;;;;;;;;;;1746218;28;20297;-81
2023/07/24 00:06:23;;;;;;;0.00;0.00;;;;;;;;;;1747115;28;20686;-81
2023/07/24 00:07:15;;;;;;;0.00;0.00;;;;;;;;;;1748109;28;20266;-81
2023/07/24 00:08:06;;;;;;;0.00;0.00;;;;;;;;;;1747556;28;20297;-81
2023/07/24 00:08:58;;;;;;;0.00;0.00;;;;;;;;;;1747534;28;20194;-80
2023/07/24 00:09:51;;;;;;;0.00;0.00;;;;;;;;;;1746573;28;20217;-81
2023/07/24 00:10:43;;;;;;;0.00;0.00;;;;;;;;;;1745782;28;20233;-81
2023/07/24 00:11:34;;;;;;;0.00;0.00;;;;;;;;;;1747804;28;20270;-81
2023/07/24 00:12:25;;;;;;;0.00;0.00;;;;;;;;;;1746755;28;20225;-80
2023/07/24 00:13:17;;;;;;;0.00;0.00;;;;;;;;;;1748468;28;20202;-79
2023/07/24 00:14:08;;;;;;;0.00;0.00;;;;;;;;;;1747402;28;20869;-80
2023/07/24 00:14:59;;;;;;;0.00;0.00;;;;;;;;;;1747459;28;20262;-80
2023/07/24 00:15:51;;;;;;;0.00;0.00;;;;;;;;;;1745817;28;20233;-80
2023/07/24 00:16:43;;;;;;;0.00;0.00;;;;;;;;;;1747831;28;20723;-80
2023/07/24 00:17:34;;;;;;;0.00;0.00;;;;;;;;;;1747383;28;20237;-80
2023/07/24 00:18:26;;;;;;;0.00;0.00;;;;;;;;;;1747499;28;20670;-80
2023/07/24 00:19:17;;;;;;;0.00;0.00;;;;;;;;;;1747328;28;20314;-80
2023/07/24 00:20:08;;;;;;;0.00;0.00;;;;;;;;;;1747316;28;20360;-80
2023/07/24 00:21:00;;;;;;;0.00;0.00;;;;;;;;;;1748218;28;20240;-80
2023/07/24 00:21:51;;;;;;;0.00;0.00;;;;;;;;;;1747754;28;20283;-80
2023/07/24 00:22:43;;;;;;;0.00;0.00;;;;;;;;;;1746857;28;20727;-80
2023/07/24 00:23:34;;;;;;;0.00;0.00;;;;;;;;;;1747670;28;20631;-80
2023/07/24 00:24:25;;;;;;;0.00;0.00;;;;;;;;;;1746699;28;20230;-80
2023/07/24 00:25:19;;;;;;;0.00;0.00;;;;;;;;;;1746302;28;20568;-80
2023/07/24 00:26:10;;;;;;;0.00;0.00;;;;;;;;;;1749056;28;20291;-80
2023/07/24 00:27:02;;;;;;;0.00;0.00;;;;;;;;;;1749891;28;20312;-80
2023/07/24 00:27:53;;;;;;;0.00;0.00;;;;;;;;;;1748763;28;20647;-80
2023/07/24 00:28:45;;;;;;;0.00;0.00;;;;;;;;;;1743725;28;20289;-80
2023/07/24 00:29:36;;;;;;;0.00;0.00;;;;;;;;;;1747857;28;20202;-80
2023/07/24 00:30:28;;;;;;;0.00;0.00;;;;;;;;;;1751814;28;20240;-80
2023/07/24 00:31:19;;;;;;;0.00;0.00;;;;;;;;;;1746076;28;20309;-80
2023/07/24 00:32:10;;;;;;;0.00;0.00;;;;;;;;;;1750608;28;20658;-80
2023/07/24 00:33:02;;;;;;;0.00;0.00;;;;;;;;;;1745793;28;20209;-80
2023/07/24 00:33:54;;;;;;;0.00;0.00;;;;;;;;;;1745973;28;20298;-80
2023/07/24 00:34:45;;;;;;;0.00;0.00;;;;;;;;;;1745713;28;20306;-80
2023/07/24 00:35:37;;;;;;;0.00;0.00;;;;;;;;;;1745743;28;20382;-80
2023/07/24 00:36:28;;;;;;;0.00;0.00;;;;;;;;;;1747345;28;20248;-80
2023/07/24 00:37:19;;;;;;;0.00;0.00;;;;;;;;;;1747048;28;20687;-80
2023/07/24 00:38:11;;;;;;;0.00;0.00;;;;;;;;;;1747177;28;20205;-80
2023/07/24 00:39:02;;;;;;;0.00;0.00;;;;;;;;;;1746715;28;20288;-80
2023/07/24 00:39:53;;;;;;;0.00;0.00;;;;;;;;;;1747249;28;20325;-80
2023/07/24 00:40:46;;;;;;;0.00;0.00;;;;;;;;;;1747165;28;20763;-80
2023/07/24 00:41:37;;;;;;;0.00;0.00;;;;;;;;;;1748939;28;20524;-80
2023/07/24 00:42:28;;;;;;;0.00;0.00;;;;;;;;;;1748130;28;20267;-80
2023/07/24 00:43:20;;;;;;;0.00;0.00;;;;;;;;;;1748542;28;20532;-80
2023/07/24 00:44:12;;;;;;;0.00;0.00;;;;;;;;;;1748704;28;20256;-80
2023/07/24 00:45:08;;;;;;;0.00;0.00;;;;;;;;;;1748558;28;20198;-80
2023/07/24 00:46:00;;;;;;;0.00;0.00;;;;;;;;;;1745030;28;20241;-81
2023/07/24 00:46:51;;;;;;;0.00;0.00;;;;;;;;;;1745021;28;20281;-81
2023/07/24 00:47:43;;;;;;;0.00;0.00;;;;;;;;;;1746765;28;20271;-81
2023/07/24 00:48:34;;;;;;;0.00;0.00;;;;;;;;;;1747621;28;20688;-81
2023/07/24 00:49:25;;;;;;;0.00;0.00;;;;;;;;;;1746964;28;20534;-81
2023/07/24 00:50:17;;;;;;;0.00;0.00;;;;;;;;;;1746366;28;20203;-81
2023/07/24 00:51:08;;;;;;;0.00;0.00;;;;;;;;;;1748418;28;20372;-80
2023/07/24 00:51:59;;;;;;;0.00;0.00;;;;;;;;;;1748925;28;20433;-80
2023/07/24 00:52:51;;;;;;;0.00;0.00;;;;;;;;;;1750642;28;20198;-80
2023/07/24 00:53:43;;;;;;;0.00;0.00;;;;;;;;;;1751151;28;20265;-80
2023/07/24 00:54:34;;;;;;;0.00;0.00;;;;;;;;;;1751572;28;20577;-80
2023/07/24 00:55:27;;;;;;;0.00;0.00;;;;;;;;;;1748291;28;20198;-80
2023/07/24 00:56:19;;;;;;;0.00;0.00;;;;;;;;;;1748216;28;20244;-80
2023/07/24 00:57:10;;;;;;;0.00;0.00;;;;;;;;;;1747995;28;20705;-80
2023/07/24 00:58:04;;;;;;;0.00;0.00;;;;;;;;;;1747530;28;20251;-79
2023/07/24 00:58:55;;;;;;;0.00;0.00;;;;;;;;;;1747907;28;20209;-80
2023/07/24 00:59:47;;;;;;;0.00;0.00;;;;;;;;;;1747475;28;20240;-80
2023/07/24 01:00:38;;;;;;;0.00;0.00;;;;;;;;;;1749855;28;20683;-80
2023/07/24 01:01:31;;;;;;;0.00;0.00;;;;;;;;;;1754964;28;20209;-80
2023/07/24 01:02:22;;;;;;;0.00;0.00;;;;;;;;;;1754868;28;20390;-80
2023/07/24 01:03:14;;;;;;;0.00;0.00;;;;;;;;;;1754748;28;20301;-80
2023/07/24 01:04:06;;;;;;;0.00;0.00;;;;;;;;;;1754824;28;20267;-80
2023/07/24 01:04:57;;;;;;;0.00;0.00;;;;;;;;;;1754693;28;20646;-80
2023/07/24 01:05:49;;;;;;;0.00;0.00;;;;;;;;;;1750181;28;20237;-80
2023/07/24 01:06:40;;;;;;;0.00;0.00;;;;;;;;;;1749621;28;20837;-80
2023/07/24 01:07:31;;;;;;;0.00;0.00;;;;;;;;;;1749643;28;20441;-80
2023/07/24 01:08:23;;;;;;;0.00;0.00;;;;;;;;;;1749991;28;20293;-80
2023/07/24 01:09:14;;;;;;;0.00;0.00;;;;;;;;;;1749198;28;20233;-80
2023/07/24 01:10:06;;;;;;;0.00;0.00;;;;;;;;;;1749615;28;20202;-80
2023/07/24 01:11:02;;;;;;;0.00;0.00;;;;;;;;;;1747966;28;20287;-80
2023/07/24 01:11:59;;;;;;;0.00;0.00;;;;;;;;;;1746915;28;20298;-80
2023/07/24 01:12:54;;;;;;;0.00;0.00;;;;;;;;;;1746925;28;20277;-80
2023/07/24 01:13:51;;;;;;;0.00;0.00;;;;;;;;;;1741748;28;20194;-80
2023/07/24 01:14:45;;;;;;;0.00;0.00;;;;;;;;;;1747160;28;20214;-80
2023/07/24 01:15:39;;;;;;;0.00;0.00;;;;;;;;;;1749783;28;20229;-80
2023/07/24 01:16:33;;;;;;;0.00;0.00;;;;;;;;;;1753769;28;20248;-80
2023/07/24 01:17:26;;;;;;;0.00;0.00;;;;;;;;;;1753419;28;20251;-80
2023/07/24 01:18:19;;;;;;;0.00;0.00;;;;;;;;;;1754695;28;20197;-80
2023/07/24 01:19:12;;;;;;;0.00;0.00;;;;;;;;;;1753767;28;20299;-80
2023/07/24 01:20:04;;;;;;;0.00;0.00;;;;;;;;;;1754862;28;20233;-81
2023/07/24 01:20:58;;;;;;;0.00;0.00;;;;;;;;;;1754330;28;20237;-82
2023/07/24 01:21:57;;;;;;;0.00;0.00;;;;;;;;;;1755399;28;20205;-81
2023/07/24 01:22:54;;;;;;;0.00;0.00;;;;;;;;;;1754548;28;20203;-81
2023/07/24 01:23:50;;;;;;;0.00;0.00;;;;;;;;;;1755666;28;20670;-81
2023/07/24 01:24:53;;;;;;;0.00;0.00;;;;;;;;;;1755336;28;20225;-81
2023/07/24 01:25:53;;;;;;;0.00;0.00;;;;;;;;;;1748929;28;20230;-81
2023/07/24 01:26:45;;;;;;;0.00;0.00;;;;;;;;;;1754383;28;20675;-82
2023/07/24 01:27:40;;;;;;;0.00;0.00;;;;;;;;;;1756879;28;20233;-82
2023/07/24 01:28:31;;;;;;;0.00;0.00;;;;;;;;;;1757393;28;20255;-81
2023/07/24 01:29:23;;;;;;;0.00;0.00;;;;;;;;;;1756432;28;20202;-81
2023/07/24 01:30:17;;;;;;;0.00;0.00;;;;;;;;;;1755695;28;20294;-82
2023/07/24 01:31:09;;;;;;;0.00;0.00;;;;;;;;;;1745655;28;20272;-82
2023/07/24 01:32:00;;;;;;;0.00;0.00;;;;;;;;;;1748446;28;20676;-82
2023/07/24 01:32:51;;;;;;;0.00;0.00;;;;;;;;;;1747859;28;20198;-81
2023/07/24 01:33:43;;;;;;;0.00;0.00;;;;;;;;;;1748425;28;20198;-81
2023/07/24 01:34:34;;;;;;;0.00;0.00;;;;;;;;;;1746063;28;20240;-81
2023/07/24 01:35:27;;;;;;;0.00;0.00;;;;;;;;;;1746371;28;20217;-81
2023/07/24 01:36:20;;;;;;;0.00;0.00;;;;;;;;;;1747262;28;20632;-82
2023/07/24 01:37:12;;;;;;;0.00;0.00;;;;;;;;;;1748046;28;20226;-81
2023/07/24 01:38:03;;;;;;;0.00;0.00;;;;;;;;;;1746412;28;20194;-81
2023/07/24 01:38:55;;;;;;;0.00;0.00;;;;;;;;;;1747749;28;20578;-81
2023/07/24 01:39:46;;;;;;;0.00;0.00;;;;;;;;;;1747450;28;20234;-81
2023/07/24 01:40:39;;;;;;;0.00;0.00;;;;;;;;;;1744707;28;20230;-81
2023/07/24 01:41:32;;;;;;;0.00;0.00;;;;;;;;;;1746952;28;20713;-81
2023/07/24 01:42:23;;;;;;;0.00;0.00;;;;;;;;;;1746927;28;20234;-81
2023/07/24 01:43:16;;;;;;;0.00;0.00;;;;;;;;;;1747456;28;20517;-81
2023/07/24 01:44:07;;;;;;;0.00;0.00;;;;;;;;;;1747402;28;20210;-81
2023/07/24 01:44:59;;;;;;;0.00;0.00;;;;;;;;;;1747547;28;20205;-82
2023/07/24 01:45:50;;;;;;;0.00;0.00;;;;;;;;;;1748075;28;20272;-82
2023/07/24 01:46:41;;;;;;;0.00;0.00;;;;;;;;;;1752171;28;20243;-82
2023/07/24 01:47:33;;;;;;;0.00;0.00;;;;;;;;;;1753302;28;20266;-82
2023/07/24 01:48:24;;;;;;;0.00;0.00;;;;;;;;;;1754654;28;20251;-82
2023/07/24 01:49:15;;;;;;;0.00;0.00;;;;;;;;;;1753584;28;20213;-82
2023/07/24 01:50:08;;;;;;;0.00;0.00;;;;;;;;;;1754683;28;20197;-82
2023/07/24 01:50:59;;;;;;;0.00;0.00;;;;;;;;;;1752151;28;20233;-82
2023/07/24 01:51:51;;;;;;;0.00;0.00;;;;;;;;;;1754171;28;20198;-82
2023/07/24 01:52:42;;;;;;;0.00;0.00;;;;;;;;;;1754445;28;20236;-82
2023/07/24 01:53:34;;;;;;;0.00;0.00;;;;;;;;;;1754408;28;20216;-82
2023/07/24 01:54:25;;;;;;;0.00;0.00;;;;;;;;;;1753970;28;20267;-81
2023/07/24 01:55:17;;;;;;;0.00;0.00;;;;;;;;;;1751399;28;20776;-82
2023/07/24 01:56:08;;;;;;;0.00;0.00;;;;;;;;;;1745932;28;20229;-82
2023/07/24 01:57:02;;;;;;;0.00;0.00;;;;;;;;;;1747599;28;20478;-82
2023/07/24 01:57:53;;;;;;;0.00;0.00;;;;;;;;;;1747441;28;20230;-82
2023/07/24 01:58:45;;;;;;;0.00;0.00;;;;;;;;;;1747588;28;20194;-82
2023/07/24 01:59:36;;;;;;;0.00;0.00;;;;;;;;;;1745213;28;20202;-82
2023/07/24 02:00:27;;;;;;;0.00;0.00;;;;;;;;;;1746050;28;20202;-80
2023/07/24 02:01:19;;;;;;;0.00;0.00;;;;;;;;;;1747386;28;20194;-79
2023/07/24 02:02:10;;;;;;;0.00;0.00;;;;;;;;;;1748350;28;20294;-79
2023/07/24 02:03:02;;;;;;;0.00;0.00;;;;;;;;;;1747889;28;20198;-79
2023/07/24 02:03:53;;;;;;;0.00;0.00;;;;;;;;;;1748105;28;20592;-78
2023/07/24 02:04:47;;;;;;;0.00;0.00;;;;;;;;;;1747366;28;20198;-79
2023/07/24 02:05:38;;;;;;;0.00;0.00;;;;;;;;;;1738792;28;20380;-79
2023/07/24 02:06:29;;;;;;;0.00;0.00;;;;;;;;;;1746496;28;20574;-80
2023/07/24 02:07:21;;;;;;;0.00;0.00;;;;;;;;;;1746567;28;20204;-80
2023/07/24 02:08:12;;;;;;;0.00;0.00;;;;;;;;;;1746930;28;20233;-80
2023/07/24 02:09:03;;;;;;;0.00;0.00;;;;;;;;;;1746116;28;20604;-80
2023/07/24 02:09:56;;;;;;;0.00;0.00;;;;;;;;;;1747308;28;20225;-80
2023/07/24 02:10:49;;;;;;;0.00;0.00;;;;;;;;;;1747042;28;20314;-80
2023/07/24 02:11:40;;;;;;;0.00;0.00;;;;;;;;;;1749700;28;20594;-81
2023/07/24 02:12:34;;;;;;;0.00;0.00;;;;;;;;;;1750301;28;20198;-80
2023/07/24 02:13:25;;;;;;;0.00;0.00;;;;;;;;;;1749377;28;20233;-82
2023/07/24 02:14:18;;;;;;;0.00;0.00;;;;;;;;;;1749439;28;20198;-81
2023/07/24 02:15:10;;;;;;;0.00;0.00;;;;;;;;;;1749141;28;20541;-81
2023/07/24 02:16:01;;;;;;;0.00;0.00;;;;;;;;;;1752400;28;20328;-81
2023/07/24 02:16:52;;;;;;;0.00;0.00;;;;;;;;;;1754859;28;20744;-81
2023/07/24 02:17:44;;;;;;;0.00;0.00;;;;;;;;;;1755386;28;20236;-80
2023/07/24 02:18:35;;;;;;;0.00;0.00;;;;;;;;;;1757034;28;20236;-79
2023/07/24 02:19:26;;;;;;;0.00;0.00;;;;;;;;;;1754341;28;20205;-79
2023/07/24 02:20:19;;;;;;;0.00;0.00;;;;;;;;;;1739110;28;20203;-79
2023/07/24 02:21:10;;;;;;;0.00;0.00;;;;;;;;;;1739151;28;20214;-79
2023/07/24 02:22:01;;;;;;;0.00;0.00;;;;;;;;;;1739897;28;20640;-80
2023/07/24 02:22:53;;;;;;;0.00;0.00;;;;;;;;;;1739335;28;20288;-79
2023/07/24 02:23:44;;;;;;;0.00;0.00;;;;;;;;;;1740046;28;20596;-79
2023/07/24 02:24:35;;;;;;;0.00;0.00;;;;;;;;;;1739498;28;20199;-79
2023/07/24 02:25:27;;;;;;;0.00;0.00;;;;;;;;;;1739947;28;20854;-79
2023/07/24 02:26:18;;;;;;;0.00;0.00;;;;;;;;;;1742596;28;20700;-79
2023/07/24 02:27:14;;;;;;;0.00;0.00;;;;;;;;;;1742137;28;20214;-79
2023/07/24 02:28:06;;;;;;;0.00;0.00;;;;;;;;;;1742082;28;20214;-79
2023/07/24 02:28:57;;;;;;;0.00;0.00;;;;;;;;;;1737512;28;20246;-79
2023/07/24 02:29:49;;;;;;;0.00;0.00;;;;;;;;;;1741691;28;20215;-79
2023/07/24 02:30:40;;;;;;;0.00;0.00;;;;;;;;;;1738047;28;20565;-79
2023/07/24 02:31:32;;;;;;;0.00;0.00;;;;;;;;;;1739352;28;20294;-79
2023/07/24 02:32:23;;;;;;;0.00;0.00;;;;;;;;;;1739525;28;20599;-79
2023/07/24 02:33:15;;;;;;;0.00;0.00;;;;;;;;;;1739596;28;20198;-79
2023/07/24 02:34:07;;;;;;;0.00;0.00;;;;;;;;;;1739155;28;20210;-79
2023/07/24 02:34:58;;;;;;;0.00;0.00;;;;;;;;;;1736034;28;20323;-79
2023/07/24 02:35:50;;;;;;;0.00;0.00;;;;;;;;;;1737618;28;20230;-79
2023/07/24 02:36:42;;;;;;;0.00;0.00;;;;;;;;;;1740146;28;20214;-79
2023/07/24 02:37:34;;;;;;;0.00;0.00;;;;;;;;;;1739370;28;20227;-79
2023/07/24 02:38:25;;;;;;;0.00;0.00;;;;;;;;;;1739711;28;20234;-79
2023/07/24 02:39:16;;;;;;;0.00;0.00;;;;;;;;;;1739177;28;20233;-79
2023/07/24 02:40:09;;;;;;;0.00;0.00;;;;;;;;;;1739806;28;20231;-79
2023/07/24 02:41:00;;;;;;;0.00;0.00;;;;;;;;;;1738897;28;20245;-79
2023/07/24 02:41:51;;;;;;;0.00;0.00;;;;;;;;;;1741287;28;20203;-79
2023/07/24 02:42:43;;;;;;;0.00;0.00;;;;;;;;;;1741800;28;20199;-81
2023/07/24 02:43:35;;;;;;;0.00;0.00;;;;;;;;;;1741947;28;20239;-80
2023/07/24 02:44:27;;;;;;;0.00;0.00;;;;;;;;;;1742279;28;20636;-80
2023/07/24 02:45:18;;;;;;;0.00;0.00;;;;;;;;;;1741051;28;20271;-80
2023/07/24 02:46:09;;;;;;;0.00;0.00;;;;;;;;;;1741252;28;20294;-81
2023/07/24 02:47:02;;;;;;;0.00;0.00;;;;;;;;;;1738765;28;20195;-81
2023/07/24 02:47:53;;;;;;;0.00;0.00;;;;;;;;;;1742193;28;20203;-81
2023/07/24 02:48:44;;;;;;;0.00;0.00;;;;;;;;;;1741976;28;20191;-81
2023/07/24 02:49:36;;;;;;;0.00;0.00;;;;;;;;;;1741890;28;20218;-81
2023/07/24 02:50:27;;;;;;;0.00;0.00;;;;;;;;;;1740298;28;20275;-81
2023/07/24 02:51:19;;;;;;;0.00;0.00;;;;;;;;;;1741557;28;20226;-81
2023/07/24 02:52:10;;;;;;;0.00;0.00;;;;;;;;;;1742778;28;20668;-81
2023/07/24 02:53:01;;;;;;;0.00;0.00;;;;;;;;;;1741515;28;20245;-81
2023/07/24 02:53:55;;;;;;;0.00;0.00;;;;;;;;;;1742523;28;20203;-81
2023/07/24 02:54:46;;;;;;;0.00;0.00;;;;;;;;;;1741698;28;20218;-81
2023/07/24 02:55:37;;;;;;;0.00;0.00;;;;;;;;;;1739682;28;20226;-81
2023/07/24 02:56:29;;;;;;;0.00;0.00;;;;;;;;;;1740810;28;20375;-81
2023/07/24 02:57:20;;;;;;;0.00;0.00;;;;;;;;;;1740659;28;20239;-81
2023/07/24 02:58:12;;;;;;;0.00;0.00;;;;;;;;;;1740554;28;20230;-81
2023/07/24 02:59:05;;;;;;;0.00;0.00;;;;;;;;;;1740455;28;20234;-81
2023/07/24 02:59:56;;;;;;;0.00;0.00;;;;;;;;;;1741469;28;20223;-81
2023/07/24 03:00:47;;;;;;;0.00;0.00;;;;;;;;;;1737747;28;20227;-78
2023/07/24 03:01:39;;;;;;;0.00;0.00;;;;;;;;;;1739544;28;20203;-78
2023/07/24 03:02:30;;;;;;;0.00;0.00;;;;;;;;;;1738880;28;20404;-78
2023/07/24 03:03:22;;;;;;;0.00;0.00;;;;;;;;;;1739220;28;20350;-79
2023/07/24 03:04:13;;;;;;;0.00;0.00;;;;;;;;;;1738833;28;20629;-79
2023/07/24 03:05:06;;;;;;;0.00;0.00;;;;;;;;;;1739488;28;20210;-79
2023/07/24 03:05:57;;;;;;;0.00;0.00;;;;;;;;;;1736426;28;20269;-79
2023/07/24 03:06:48;;;;;;;0.00;0.00;;;;;;;;;;1739627;28;20213;-79
2023/07/24 03:07:40;;;;;;;0.00;0.00;;;;;;;;;;1739020;28;20203;-80
2023/07/24 03:08:31;;;;;;;0.00;0.00;;;;;;;;;;1739979;28;20207;-80
2023/07/24 03:09:23;;;;;;;0.00;0.00;;;;;;;;;;1738752;28;20280;-80
2023/07/24 03:10:14;;;;;;;0.00;0.00;;;;;;;;;;1737842;28;20687;-80
2023/07/24 03:11:05;;;;;;;0.00;0.00;;;;;;;;;;1740071;28;20238;-80
2023/07/24 03:11:57;;;;;;;0.00;0.00;;;;;;;;;;1740217;28;20683;-80
2023/07/24 03:12:48;;;;;;;0.00;0.00;;;;;;;;;;1740825;28;20557;-80
2023/07/24 03:13:42;;;;;;;0.00;0.00;;;;;;;;;;1740195;28;20225;-80
2023/07/24 03:14:34;;;;;;;0.00;0.00;;;;;;;;;;1741026;28;20553;-79
2023/07/24 03:15:26;;;;;;;0.00;0.00;;;;;;;;;;1739832;28;20207;-80
2023/07/24 03:16:19;;;;;;;0.00;0.00;;;;;;;;;;1740584;28;20203;-80
2023/07/24 03:17:11;;;;;;;0.00;0.00;;;;;;;;;;1740755;28;20260;-80
2023/07/24 03:18:03;;;;;;;0.00;0.00;;;;;;;;;;1740431;28;20526;-80
2023/07/24 03:18:54;;;;;;;0.00;0.00;;;;;;;;;;1741132;28;20290;-80
2023/07/24 03:19:45;;;;;;;0.00;0.00;;;;;;;;;;1745359;28;20641;-80
2023/07/24 03:20:37;;;;;;;0.00;0.00;;;;;;;;;;1749608;28;20583;-80
2023/07/24 03:21:28;;;;;;;0.00;0.00;;;;;;;;;;1747672;28;20375;-80
2023/07/24 03:22:20;;;;;;;0.00;0.00;;;;;;;;;;1747663;28;20300;-80
2023/07/24 03:23:11;;;;;;;0.00;0.00;;;;;;;;;;1747781;28;20273;-80
2023/07/24 03:24:02;;;;;;;0.00;0.00;;;;;;;;;;1747420;28;20205;-80
2023/07/24 03:24:54;;;;;;;0.00;0.00;;;;;;;;;;1748313;28;20202;-80
2023/07/24 03:25:45;;;;;;;0.00;0.00;;;;;;;;;;1750291;28;20329;-81
2023/07/24 03:26:37;;;;;;;0.00;0.00;;;;;;;;;;1754229;28;20266;-80
2023/07/24 03:27:28;;;;;;;0.00;0.00;;;;;;;;;;1754176;28;20624;-80
2023/07/24 03:28:19;;;;;;;0.00;0.00;;;;;;;;;;1752619;28;20289;-80
2023/07/24 03:29:11;;;;;;;0.00;0.00;;;;;;;;;;1749374;28;20631;-80
2023/07/24 03:30:05;;;;;;;0.00;0.00;;;;;;;;;;1754729;28;20296;-80
2023/07/24 03:30:57;;;;;;;0.00;0.00;;;;;;;;;;1750373;28;20236;-80
2023/07/24 03:31:49;;;;;;;0.00;0.00;;;;;;;;;;1749590;28;20659;-80
2023/07/24 03:32:40;;;;;;;0.00;0.00;;;;;;;;;;1751110;28;20212;-80
2023/07/24 03:33:32;;;;;;;0.00;0.00;;;;;;;;;;1753046;28;20362;-80
2023/07/24 03:34:23;;;;;;;0.00;0.00;;;;;;;;;;1752600;28;20234;-80
2023/07/24 03:35:15;;;;;;;0.00;0.00;;;;;;;;;;1753629;28;20202;-81
2023/07/24 03:36:07;;;;;;;0.00;0.00;;;;;;;;;;1752140;28;20735;-81
2023/07/24 03:36:58;;;;;;;0.00;0.00;;;;;;;;;;1753233;28;20248;-80
2023/07/24 03:37:49;;;;;;;0.00;0.00;;;;;;;;;;1752110;28;20248;-80
2023/07/24 03:38:41;;;;;;;0.00;0.00;;;;;;;;;;1753023;28;20207;-80
2023/07/24 03:39:32;;;;;;;0.00;0.00;;;;;;;;;;1753069;28;20691;-81
2023/07/24 03:40:23;;;;;;;0.00;0.00;;;;;;;;;;1750526;28;20184;-80
2023/07/24 03:41:15;;;;;;;0.00;0.00;;;;;;;;;;1745789;28;20655;-80
2023/07/24 03:42:06;;;;;;;0.00;0.00;;;;;;;;;;1746964;28;20298;-81
2023/07/24 03:42:58;;;;;;;0.00;0.00;;;;;;;;;;1745618;28;20497;-79
2023/07/24 03:43:49;;;;;;;0.00;0.00;;;;;;;;;;1746376;28;20285;-79
2023/07/24 03:44:41;;;;;;;0.00;0.00;;;;;;;;;;1745383;28;20575;-79
2023/07/24 03:45:34;;;;;;;0.00;0.00;;;;;;;;;;1747802;28;20462;-79
2023/07/24 03:46:26;;;;;;;0.00;0.00;;;;;;;;;;1751308;28;20624;-80
2023/07/24 03:47:17;;;;;;;0.00;0.00;;;;;;;;;;1749295;28;20321;-80
2023/07/24 03:48:08;;;;;;;0.00;0.00;;;;;;;;;;1752856;28;20211;-80
2023/07/24 03:49:00;;;;;;;0.00;0.00;;;;;;;;;;1752458;28;20189;-80
2023/07/24 03:49:51;;;;;;;0.00;0.00;;;;;;;;;;1753376;28;20583;-80
2023/07/24 03:50:42;;;;;;;0.00;0.00;;;;;;;;;;1751041;28;20651;-80
2023/07/24 03:51:34;;;;;;;0.00;0.00;;;;;;;;;;1752895;28;20194;-80
2023/07/24 03:52:26;;;;;;;0.00;0.00;;;;;;;;;;1752666;28;20244;-80
2023/07/24 03:53:17;;;;;;;0.00;0.00;;;;;;;;;;1752752;28;20603;-80
2023/07/24 03:54:09;;;;;;;0.00;0.00;;;;;;;;;;1749241;28;20237;-80
2023/07/24 03:55:00;;;;;;;0.00;0.00;;;;;;;;;;1752700;28;20580;-80
2023/07/24 03:55:53;;;;;;;0.00;0.00;;;;;;;;;;1750489;28;20626;-81
2023/07/24 03:56:45;;;;;;;0.00;0.00;;;;;;;;;;1754225;28;20220;-80
2023/07/24 03:57:36;;;;;;;0.00;0.00;;;;;;;;;;1752897;28;20205;-80
2023/07/24 03:58:28;;;;;;;0.00;0.00;;;;;;;;;;1753749;28;20574;-80
2023/07/24 03:59:19;;;;;;;0.00;0.00;;;;;;;;;;1752556;28;20652;-80
2023/07/24 04:00:10;;;;;;;0.00;0.00;;;;;;;;;;1753708;28;20216;-81
2023/07/24 04:01:04;;;;;;;0.00;0.00;;;;;;;;;;1743630;28;20230;-81
2023/07/24 04:01:55;;;;;;;0.00;0.00;;;;;;;;;;1745900;28;20248;-80
2023/07/24 04:02:47;;;;;;;0.00;0.00;;;;;;;;;;1745953;28;20190;-80
2023/07/24 04:03:39;;;;;;;0.00;0.00;;;;;;;;;;1745778;28;20194;-80
2023/07/24 04:04:30;;;;;;;0.00;0.00;;;;;;;;;;1745686;28;20244;-79
2023/07/24 04:05:22;;;;;;;0.00;0.00;;;;;;;;;;1745297;28;20214;-79
2023/07/24 04:06:13;;;;;;;0.00;0.00;;;;;;;;;;1751968;28;20531;-80
2023/07/24 04:07:05;;;;;;;0.00;0.00;;;;;;;;;;1747266;28;20325;-80
2023/07/24 04:07:56;;;;;;;0.00;0.00;;;;;;;;;;1752120;28;20296;-80
2023/07/24 04:08:47;;;;;;;0.00;0.00;;;;;;;;;;1753030;28;20212;-80
2023/07/24 04:09:39;;;;;;;0.00;0.00;;;;;;;;;;1752216;28;20288;-80
2023/07/24 04:10:30;;;;;;;0.00;0.00;;;;;;;;;;1751582;28;20271;-80
2023/07/24 04:11:21;;;;;;;0.00;0.00;;;;;;;;;;1752098;28;20469;-80
2023/07/24 04:12:13;;;;;;;0.00;0.00;;;;;;;;;;1753379;28;20209;-81
2023/07/24 04:13:05;;;;;;;0.00;0.00;;;;;;;;;;1752458;28;20363;-80
2023/07/24 04:13:57;;;;;;;0.00;0.00;;;;;;;;;;1753344;28;20197;-80
2023/07/24 04:14:48;;;;;;;0.00;0.00;;;;;;;;;;1753756;28;20321;-80
2023/07/24 04:15:40;;;;;;;0.00;0.00;;;;;;;;;;1751019;28;20229;-80
2023/07/24 04:16:33;;;;;;;0.00;0.00;;;;;;;;;;1750862;28;20296;-80
2023/07/24 04:17:24;;;;;;;0.00;0.00;;;;;;;;;;1747036;28;20297;-80
2023/07/24 04:18:16;;;;;;;0.00;0.00;;;;;;;;;;1752827;28;20225;-80
2023/07/24 04:19:07;;;;;;;0.00;0.00;;;;;;;;;;1748916;28;20297;-80
2023/07/24 04:19:58;;;;;;;0.00;0.00;;;;;;;;;;1749469;28;20233;-79
2023/07/24 04:20:50;;;;;;;0.00;0.00;;;;;;;;;;1750661;28;20225;-79
2023/07/24 04:21:41;;;;;;;0.00;0.00;;;;;;;;;;1753430;28;20209;-79
2023/07/24 04:22:32;;;;;;;0.00;0.00;;;;;;;;;;1752457;28;20202;-79
2023/07/24 04:23:24;;;;;;;0.00;0.00;;;;;;;;;;1753405;28;20205;-79
2023/07/24 04:24:15;;;;;;;0.00;0.00;;;;;;;;;;1752291;28;20256;-79
2023/07/24 04:25:06;;;;;;;0.00;0.00;;;;;;;;;;1753595;28;20508;-80
2023/07/24 04:25:59;;;;;;;0.00;0.00;;;;;;;;;;1750107;28;20706;-79
2023/07/24 04:26:50;;;;;;;0.00;0.00;;;;;;;;;;1747892;28;20640;-79
2023/07/24 04:27:42;;;;;;;0.00;0.00;;;;;;;;;;1750787;28;20309;-79
2023/07/24 04:28:33;;;;;;;0.00;0.00;;;;;;;;;;1749474;28;20371;-79
2023/07/24 04:29:25;;;;;;;0.00;0.00;;;;;;;;;;1749223;28;20201;-79
2023/07/24 04:30:17;;;;;;;0.00;0.00;;;;;;;;;;1751093;28;20197;-80
2023/07/24 04:31:08;;;;;;;0.00;0.00;;;;;;;;;;1752492;28;20295;-79
2023/07/24 04:32:02;;;;;;;0.00;0.00;;;;;;;;;;1753978;28;20201;-80
2023/07/24 04:32:53;;;;;;;0.00;0.00;;;;;;;;;;1751644;28;20293;-79
2023/07/24 04:33:45;;;;;;;0.00;0.00;;;;;;;;;;1753150;28;20637;-79
2023/07/24 04:34:36;;;;;;;0.00;0.00;;;;;;;;;;1751698;28;20749;-79
2023/07/24 04:35:27;;;;;;;0.00;0.00;;;;;;;;;;1751513;28;20284;-80
2023/07/24 04:36:19;;;;;;;0.00;0.00;;;;;;;;;;1751951;28;20296;-80
2023/07/24 04:37:10;;;;;;;0.00;0.00;;;;;;;;;;1753275;28;20288;-80
2023/07/24 04:38:02;;;;;;;0.00;0.00;;;;;;;;;;1752219;28;20666;-80
2023/07/24 04:38:53;;;;;;;0.00;0.00;;;;;;;;;;1753975;28;20657;-80
2023/07/24 04:39:44;;;;;;;0.00;0.00;;;;;;;;;;1751541;28;20284;-80
2023/07/24 04:40:36;;;;;;;0.00;0.00;;;;;;;;;;1751679;28;20312;-80
2023/07/24 04:41:27;;;;;;;0.00;0.00;;;;;;;;;;1752700;28;20289;-79
2023/07/24 04:42:19;;;;;;;0.00;0.00;;;;;;;;;;1752582;28;20601;-79
2023/07/24 04:43:10;;;;;;;0.00;0.00;;;;;;;;;;1751934;28;20703;-79
2023/07/24 04:44:01;;;;;;;0.00;0.00;;;;;;;;;;1752100;28;20557;-79
2023/07/24 04:44:53;;;;;;;0.00;0.00;;;;;;;;;;1753066;28;20623;-79
2023/07/24 04:45:44;;;;;;;0.00;0.00;;;;;;;;;;1752067;28;20688;-80
2023/07/24 04:46:36;;;;;;;0.00;0.00;;;;;;;;;;1753043;28;20312;-79
2023/07/24 04:47:29;;;;;;;0.00;0.00;;;;;;;;;;1751093;28;20279;-80
2023/07/24 04:48:20;;;;;;;0.00;0.00;;;;;;;;;;1754545;28;20710;-79
2023/07/24 04:49:12;;;;;;;0.00;0.00;;;;;;;;;;1749134;28;20628;-79
2023/07/24 04:50:03;;;;;;;0.00;0.00;;;;;;;;;;1755820;28;20225;-80
2023/07/24 04:50:55;;;;;;;0.00;0.00;;;;;;;;;;1750382;28;20241;-80
2023/07/24 04:51:46;;;;;;;0.00;0.00;;;;;;;;;;1752808;28;20261;-80
2023/07/24 04:52:38;;;;;;;0.00;0.00;;;;;;;;;;1752361;28;20801;-80
2023/07/24 04:53:30;;;;;;;0.00;0.00;;;;;;;;;;1752789;28;20728;-80
2023/07/24 04:54:21;;;;;;;0.00;0.00;;;;;;;;;;1751131;28;20233;-79
2023/07/24 04:55:13;;;;;;;0.00;0.00;;;;;;;;;;1752192;28;20212;-79
2023/07/24 04:56:04;;;;;;;0.00;0.00;;;;;;;;;;1751499;28;20259;-80
2023/07/24 04:56:56;;;;;;;0.00;0.00;;;;;;;;;;1753901;28;20197;-80
2023/07/24 04:57:47;;;;;;;0.00;0.00;;;;;;;;;;1753263;28;20301;-80
2023/07/24 04:58:39;;;;;;;0.00;0.00;;;;;;;;;;1753397;28;20312;-80
2023/07/24 04:59:30;;;;;;;0.00;0.00;;;;;;;;;;1753340;28;20285;-79
2023/07/24 05:00:21;;;;;;;0.00;0.00;;;;;;;;;;1750954;28;20209;-80
2023/07/24 05:01:14;;;;;;;0.00;0.00;;;;;;;;;;1752061;28;20232;-80
2023/07/24 05:02:05;;;;;;;0.00;0.00;;;;;;;;;;1752698;28;20309;-81
2023/07/24 05:02:58;;;;;;;0.00;0.00;;;;;;;;;;1752573;28;20225;-81
2023/07/24 05:03:49;;;;;;;0.00;0.00;;;;;;;;;;1746145;28;20236;-80
2023/07/24 05:04:42;;;;;;;0.00;0.00;;;;;;;;;;1751134;28;20230;-81
2023/07/24 05:05:33;;;;;;;0.00;0.00;;;;;;;;;;1751130;28;20622;-81
2023/07/24 05:06:24;;;;;;;0.00;0.00;;;;;;;;;;1751994;28;20508;-80
2023/07/24 05:07:16;;;;;;;0.00;0.00;;;;;;;;;;1752917;28;20758;-81
2023/07/24 05:08:07;;;;;;;0.00;0.00;;;;;;;;;;1752394;28;20312;-80
2023/07/24 05:08:59;;;;;;;0.00;0.00;;;;;;;;;;1752430;28;20545;-80
2023/07/24 05:09:50;;;;;;;0.00;0.00;;;;;;;;;;1752526;28;20259;-80
2023/07/24 05:10:42;;;;;;;0.00;0.00;;;;;;;;;;1750632;28;20233;-80